createdAt,value
2019-04-21T00:00:09.241Z,14.65
2019-04-21T00:02:41.157Z,14.54
2019-04-21T00:05:32.079Z,14.48
2019-04-21T00:08:01.236Z,14.41
2019-04-21T00:10:33.378Z,14.36
2019-04-21T00:12:57.388Z,14.32
2019-04-21T00:15:24.446Z,14.27
2019-04-21T00:17:51.747Z,14.21
2019-04-21T00:20:32.261Z,14.17
2019-04-21T00:23:10.056Z,14.11
2019-04-21T00:25:33.899Z,14.07
2019-04-21T00:28:20.144Z,14.00
2019-04-21T00:30:44.365Z,13.88
2019-04-21T00:33:05.204Z,13.88
2019-04-21T00:35:29.412Z,13.84
2019-04-21T00:38:17.075Z,13.79
2019-04-21T00:40:56.693Z,13.76
2019-04-21T00:43:22.309Z,13.70
2019-04-21T00:45:44.917Z,13.70
2019-04-21T00:48:23.309Z,13.64
2019-04-21T00:51:14.575Z,13.59
2019-04-21T00:53:51.962Z,13.54
2019-04-21T00:56:15.303Z,13.46
2019-04-21T00:58:49.989Z,13.37
2019-04-21T01:01:14.974Z,13.29
2019-04-21T01:03:53.352Z,13.23
2019-04-21T01:06:22.360Z,13.14
2019-04-21T01:08:48.876Z,13.07
2019-04-21T01:11:19.208Z,13.07
2019-04-21T01:13:59.616Z,13.01
2019-04-21T01:16:29.931Z,12.96
2019-04-21T01:18:54.547Z,12.90
2019-04-21T01:21:13.657Z,12.82
2019-04-21T01:23:35.844Z,12.79
2019-04-21T01:26:18.282Z,12.75
2019-04-21T01:28:55.713Z,12.70
2019-04-21T01:31:25.846Z,12.65
2019-04-21T01:34:03.284Z,12.63
2019-04-21T01:36:24.568Z,12.57
2019-04-21T01:39:06.694Z,12.52
2019-04-21T01:41:52.596Z,12.47
2019-04-21T01:44:01.148Z,12.44
2019-04-21T01:46:33.546Z,12.39
2019-04-21T01:49:03.377Z,12.36
2019-04-21T01:51:45.435Z,12.30
2019-04-21T01:54:14.633Z,12.24
2019-04-21T01:56:44.503Z,12.18
2019-04-21T01:59:10.199Z,12.12
2019-04-21T02:01:54.182Z,12.07
2019-04-21T02:04:29.265Z,11.97
2019-04-21T02:06:59.899Z,11.91
2019-04-21T02:09:27.378Z,11.86
2019-04-21T02:12:05.837Z,11.82
2019-04-21T02:14:39.071Z,11.74
2019-04-21T02:17:05.596Z,11.71
2019-04-21T02:19:31.302Z,11.67
2019-04-21T02:21:59.295Z,11.64
2019-04-21T02:24:45.123Z,11.58
2019-04-21T02:27:13.218Z,11.57
2019-04-21T02:29:41.164Z,11.54
2019-04-21T02:32:26.198Z,11.53
2019-04-21T02:34:59.953Z,11.47
2019-04-21T02:40:00.254Z,11.37
2019-04-21T02:42:32.859Z,11.35
2019-04-21T02:47:42.500Z,11.31
2019-04-21T02:52:35.444Z,11.25
2019-04-21T02:57:35.677Z,11.24
2019-04-21T03:05:34.501Z,11.19
2019-04-21T03:15:45.010Z,11.10
2019-04-21T03:18:06.353Z,11.05
2019-04-21T03:20:35.349Z,10.97
2019-04-21T03:23:09.349Z,10.93
2019-04-21T03:25:41.588Z,10.92
2019-04-21T03:28:06.458Z,10.88
2019-04-21T03:31:05.999Z,10.84
2019-04-21T03:38:18.972Z,10.72
2019-04-21T03:40:40.835Z,10.69
2019-04-21T03:43:16.566Z,10.64
2019-04-21T03:48:17.318Z,10.61
2019-04-21T03:53:18.561Z,10.62
2019-04-21T03:55:54.193Z,10.59
2019-04-21T03:58:39.471Z,10.62
2019-04-21T04:06:09.912Z,10.58
2019-04-21T04:08:51.646Z,10.55
2019-04-21T04:11:23.196Z,10.52
2019-04-21T04:16:18.357Z,10.52
2019-04-21T04:21:30.816Z,10.51
2019-04-21T04:23:58.178Z,10.49
2019-04-21T04:26:22.646Z,10.46
2019-04-21T04:28:56.272Z,10.45
2019-04-21T04:31:30.398Z,10.39
2019-04-21T04:34:12.642Z,10.36
2019-04-21T04:39:36.631Z,10.27
2019-04-21T04:42:04.975Z,10.24
2019-04-21T04:44:57.055Z,10.24
2019-04-21T04:47:05.860Z,10.24
2019-04-21T04:57:29.473Z,10.27
2019-04-21T05:04:46.139Z,10.36
2019-04-21T05:09:41.402Z,10.40
2019-04-21T05:12:22.770Z,10.45
2019-04-21T05:20:03.617Z,10.64
2019-04-21T05:22:17.168Z,10.79
2019-04-21T05:24:33.823Z,10.98
2019-04-21T05:27:07.492Z,11.26
2019-04-21T05:29:59.971Z,11.70
2019-04-21T05:32:26.454Z,12.07
2019-04-21T05:35:01.564Z,12.49
2019-04-21T05:37:51.834Z,12.88
2019-04-21T05:40:15.634Z,13.26
2019-04-21T05:42:52.540Z,13.35
2019-04-21T05:45:26.888Z,13.49
2019-04-21T05:48:02.683Z,13.58
2019-04-21T05:50:30.579Z,13.76
2019-04-21T05:52:53.540Z,14.05
2019-04-21T05:55:36.077Z,14.59
2019-04-21T05:58:04.204Z,14.82
2019-04-21T06:01:06.085Z,14.92
2019-04-21T06:03:09.925Z,15.38
2019-04-21T06:06:01.578Z,15.49
2019-04-21T06:08:13.250Z,15.93
2019-04-21T06:10:50.848Z,16.29
2019-04-21T06:13:18.699Z,16.30
2019-04-21T06:15:54.767Z,16.31
2019-04-21T06:18:23.535Z,16.17
2019-04-21T06:20:51.156Z,16.28
2019-04-21T06:23:17.927Z,16.25
2019-04-21T06:26:05.740Z,16.28
2019-04-21T06:28:21.038Z,17.56
2019-04-21T06:30:59.214Z,19.35
2019-04-21T06:33:27.583Z,21.13
2019-04-21T06:46:35.005Z,24.24
2019-04-21T06:49:03.044Z,23.84
2019-04-21T06:51:49.708Z,23.49
2019-04-21T06:54:25.268Z,23.19
2019-04-21T06:56:41.019Z,22.99
2019-04-21T06:59:21.028Z,22.88
2019-04-21T07:01:43.619Z,22.89
2019-04-21T07:04:20.851Z,22.82
2019-04-21T07:11:44.560Z,22.93
2019-04-21T07:14:29.356Z,22.94
2019-04-21T07:16:51.454Z,22.94
2019-04-21T07:21:54.245Z,23.15
2019-04-21T07:24:25.125Z,23.26
2019-04-21T07:26:55.375Z,23.43
2019-04-21T07:29:25.882Z,23.56
2019-04-21T07:31:58.954Z,23.57
2019-04-21T07:34:33.303Z,23.57
2019-04-21T07:39:27.100Z,23.71
2019-04-21T07:41:53.973Z,23.78
2019-04-21T07:44:28.502Z,23.78
2019-04-21T07:46:54.012Z,23.76
2019-04-21T07:49:50.026Z,23.85
2019-04-21T07:52:36.366Z,23.99
2019-04-21T07:55:12.588Z,24.10
2019-04-21T07:57:31.618Z,24.22
2019-04-21T08:00:14.947Z,24.38
2019-04-21T08:02:38.452Z,24.60
2019-04-21T08:05:13.305Z,24.92
2019-04-21T08:07:49.259Z,25.00
2019-04-21T08:10:14.526Z,25.07
2019-04-21T08:12:36.299Z,25.40
2019-04-21T08:15:31.011Z,25.95
2019-04-21T08:17:42.605Z,26.64
2019-04-21T08:20:13.848Z,27.54
2019-04-21T08:22:52.792Z,28.35
2019-04-21T08:25:16.816Z,29.04
2019-04-21T08:30:21.483Z,30.14
2019-04-21T08:37:50.959Z,31.66
2019-04-21T08:40:31.702Z,32.22
2019-04-21T08:42:55.073Z,32.70
2019-04-21T08:47:59.155Z,33.57
2019-04-21T08:50:30.572Z,34.01
2019-04-21T08:53:04.149Z,34.63
2019-04-21T08:55:39.980Z,35.24
2019-04-21T08:58:29.388Z,35.52
2019-04-21T09:01:06.692Z,35.72
2019-04-21T09:03:44.823Z,36.04
2019-04-21T09:06:27.360Z,36.35
2019-04-21T09:08:45.756Z,36.66
2019-04-21T09:11:20.414Z,37.01
2019-04-21T09:13:47.777Z,37.39
2019-04-21T09:16:15.430Z,37.76
2019-04-21T09:18:48.772Z,37.71
2019-04-21T09:21:25.919Z,37.73
2019-04-21T09:23:54.509Z,37.73
2019-04-21T09:26:25.253Z,37.66
2019-04-21T09:28:50.645Z,37.92
2019-04-21T09:31:08.978Z,38.30
2019-04-21T09:33:46.761Z,38.43
2019-04-21T09:36:15.422Z,38.29
2019-04-21T09:38:43.879Z,38.43
2019-04-21T09:41:16.285Z,38.61
2019-04-21T09:43:48.412Z,38.81
2019-04-21T09:46:16.046Z,38.68
2019-04-21T09:48:53.850Z,38.49
2019-04-21T09:51:17.786Z,38.79
2019-04-21T09:53:56.476Z,39.07
2019-04-21T09:56:31.468Z,39.35
2019-04-21T09:58:57.407Z,39.35
2019-04-21T10:01:28.708Z,39.31
2019-04-21T10:03:58.621Z,39.31
2019-04-21T10:06:26.029Z,38.90
2019-04-21T10:09:01.613Z,38.47
2019-04-21T10:11:26.918Z,38.19
2019-04-21T10:13:56.324Z,38.22
2019-04-21T10:16:30.380Z,38.21
2019-04-21T10:18:59.789Z,37.31
2019-04-21T10:21:29.439Z,35.56
2019-04-21T10:23:59.862Z,34.36
2019-04-21T10:26:30.499Z,33.31
2019-04-21T10:29:08.236Z,32.49
2019-04-21T10:31:32.370Z,31.91
2019-04-21T10:34:03.143Z,31.36
2019-04-21T10:36:33.202Z,30.78
2019-04-21T10:39:04.084Z,30.11
2019-04-21T10:41:35.153Z,29.51
2019-04-21T10:44:05.061Z,28.98
2019-04-21T10:46:35.001Z,28.51
2019-04-21T10:49:04.569Z,28.18
2019-04-21T10:51:35.141Z,27.86
2019-04-21T10:54:06.151Z,27.52
2019-04-21T10:56:41.170Z,27.13
2019-04-21T10:59:08.029Z,26.81
2019-04-21T11:01:38.915Z,26.54
2019-04-21T11:04:28.951Z,26.32
2019-04-21T11:06:57.134Z,26.12
2019-04-21T11:09:24.303Z,25.94
2019-04-21T11:11:53.722Z,25.78
2019-04-21T11:14:23.241Z,25.60
2019-04-21T11:16:53.423Z,25.49
2019-04-21T11:19:24.263Z,25.39
2019-04-21T11:21:54.658Z,25.31
2019-04-21T11:24:25.015Z,25.17
2019-04-21T11:26:55.823Z,25.05
2019-04-21T11:29:26.357Z,24.90
2019-04-21T11:31:56.959Z,24.80
2019-04-21T11:34:27.311Z,24.71
2019-04-21T11:36:56.801Z,24.66
2019-04-21T11:39:39.208Z,24.57
2019-04-21T11:41:59.617Z,24.50
2019-04-21T11:44:29.216Z,24.42
2019-04-21T11:46:58.562Z,24.35
2019-04-21T11:49:31.973Z,24.28
2019-04-21T11:51:59.076Z,24.16
2019-04-21T11:54:28.823Z,24.09
2019-04-21T11:56:59.814Z,24.08
2019-04-21T11:59:29.951Z,24.06
2019-04-21T12:01:59.442Z,23.98
2019-04-21T12:04:29.554Z,23.88
2019-04-21T12:06:59.848Z,23.79
2019-04-21T12:09:29.459Z,23.71
2019-04-21T12:11:59.133Z,23.67
2019-04-21T12:14:30.152Z,23.68
2019-04-21T12:16:59.616Z,23.68
2019-04-21T12:19:30.561Z,23.69
2019-04-21T12:22:09.736Z,23.79
2019-04-21T12:24:34.651Z,23.80
2019-04-21T12:27:05.638Z,23.84
2019-04-21T12:29:35.596Z,23.80
2019-04-21T12:32:15.981Z,23.78
2019-04-21T12:34:47.341Z,23.75
2019-04-21T12:37:17.060Z,23.73
2019-04-21T12:39:46.507Z,23.72
2019-04-21T12:42:16.605Z,23.68
2019-04-21T12:44:47.525Z,23.64
2019-04-21T12:47:18.025Z,23.65
2019-04-21T12:49:47.758Z,23.73
2019-04-21T12:52:17.741Z,23.76
2019-04-21T12:54:48.022Z,23.78
2019-04-21T12:57:19.231Z,23.78
2019-04-21T12:59:48.783Z,23.78
2019-04-21T13:02:18.138Z,23.73
2019-04-21T13:04:49.657Z,23.71
2019-04-21T13:07:19.448Z,23.67
2019-04-21T13:09:50.207Z,23.66
2019-04-21T13:12:19.908Z,23.61
2019-04-21T13:14:49.643Z,23.55
2019-04-21T13:17:19.482Z,23.50
2019-04-21T13:22:37.527Z,23.46
2019-04-21T13:25:07.667Z,23.43
2019-04-21T13:27:37.057Z,23.52
2019-04-21T13:30:10.463Z,23.46
2019-04-21T13:32:40.789Z,23.50
2019-04-21T13:35:11.188Z,23.60
2019-04-21T13:37:41.508Z,23.58
2019-04-21T13:40:34.104Z,23.54
2019-04-21T13:42:51.632Z,23.53
2019-04-21T13:45:18.359Z,23.53
2019-04-21T13:47:50.148Z,23.53
2019-04-21T13:50:21.399Z,23.49
2019-04-21T13:52:51.163Z,23.45
2019-04-21T13:55:21.352Z,23.45
2019-04-21T13:57:50.827Z,23.51
2019-04-21T14:00:21.437Z,23.49
2019-04-21T14:02:52.507Z,23.44
2019-04-21T14:05:22.418Z,23.45
2019-04-21T14:07:52.346Z,23.44
2019-04-21T14:10:21.978Z,23.42
2019-04-21T14:12:51.430Z,23.36
2019-04-21T14:15:22.197Z,23.34
2019-04-21T14:17:52.924Z,23.33
2019-04-21T14:20:24.858Z,23.33
2019-04-21T14:22:54.323Z,23.31
2019-04-21T14:25:23.939Z,23.27
2019-04-21T14:27:54.502Z,23.22
2019-04-21T14:30:26.326Z,23.20
2019-04-21T14:32:56.207Z,23.23
2019-04-21T14:35:26.898Z,23.42
2019-04-21T14:37:56.639Z,23.51
2019-04-21T14:40:29.208Z,23.58
2019-04-21T14:42:58.239Z,23.58
2019-04-21T14:45:30.436Z,23.59
2019-04-21T14:48:01.520Z,23.89
2019-04-21T14:50:44.346Z,23.90
2019-04-21T14:53:16.056Z,23.78
2019-04-21T14:55:46.083Z,23.65
2019-04-21T14:58:15.484Z,23.55
2019-04-21T15:00:53.823Z,23.48
2019-04-21T15:03:23.596Z,23.43
2019-04-21T15:05:54.047Z,23.36
2019-04-21T15:08:24.845Z,23.32
2019-04-21T15:10:54.936Z,23.25
2019-04-21T15:13:25.838Z,23.20
2019-04-21T15:15:56.282Z,23.15
2019-04-21T15:18:26.386Z,23.13
2019-04-21T15:20:57.246Z,23.07
2019-04-21T15:23:28.618Z,23.01
2019-04-21T15:25:58.016Z,22.96
2019-04-21T15:28:31.633Z,22.88
2019-04-21T15:31:00.640Z,22.81
2019-04-21T15:33:30.668Z,22.71
2019-04-21T15:36:00.805Z,22.65
2019-04-21T15:38:31.927Z,22.67
2019-04-21T15:41:06.414Z,22.71
2019-04-21T15:43:33.483Z,22.73
2019-04-21T15:46:02.936Z,22.76
2019-04-21T15:48:33.101Z,22.78
2019-04-21T15:51:06.759Z,22.84
2019-04-21T15:53:39.468Z,22.85
2019-04-21T15:56:17.418Z,22.93
2019-04-21T15:58:52.556Z,22.92
2019-04-21T16:01:38.952Z,22.84
2019-04-21T16:04:10.761Z,22.74
2019-04-21T16:06:41.287Z,22.66
2019-04-21T16:09:14.932Z,22.59
2019-04-21T16:11:42.225Z,22.57
2019-04-21T16:14:11.624Z,22.50
2019-04-21T16:16:41.236Z,22.46
2019-04-21T16:19:12.149Z,22.44
2019-04-21T16:21:44.420Z,22.47
2019-04-21T16:24:14.138Z,22.43
2019-04-21T16:26:44.702Z,22.36
2019-04-21T16:29:15.275Z,22.29
2019-04-21T16:31:44.808Z,22.20
2019-04-21T16:34:14.211Z,22.11
2019-04-21T16:36:43.627Z,22.05
2019-04-21T16:39:13.530Z,21.98
2019-04-21T16:41:42.966Z,21.93
2019-04-21T16:44:13.533Z,21.92
2019-04-21T16:46:43.385Z,21.94
2019-04-21T16:49:13.770Z,21.91
2019-04-21T16:51:44.319Z,21.87
2019-04-21T16:54:16.268Z,21.88
2019-04-21T16:56:47.938Z,21.91
2019-04-21T16:59:18.998Z,21.94
2019-04-21T17:01:48.914Z,21.97
2019-04-21T17:04:18.356Z,22.00
2019-04-21T17:06:49.192Z,22.01
2019-04-21T17:09:18.882Z,22.08
2019-04-21T17:11:52.335Z,22.14
2019-04-21T17:14:39.186Z,22.11
2019-04-21T17:17:16.320Z,22.10
2019-04-21T17:19:29.124Z,22.08
2019-04-21T17:21:53.297Z,22.02
2019-04-21T17:24:24.225Z,21.97
2019-04-21T17:26:53.589Z,21.94
2019-04-21T17:29:24.869Z,21.86
2019-04-21T17:31:55.297Z,21.79
2019-04-21T17:34:28.039Z,21.76
2019-04-21T17:36:57.134Z,21.73
2019-04-21T17:39:27.023Z,21.68
2019-04-21T17:42:12.545Z,21.60
2019-04-21T17:44:27.727Z,21.55
2019-04-21T17:47:02.040Z,21.50
2019-04-21T17:49:28.789Z,21.43
2019-04-21T17:52:11.254Z,21.40
2019-04-21T17:54:46.996Z,21.34
2019-04-21T17:57:33.552Z,21.29
2019-04-21T18:00:04.098Z,21.23
2019-04-21T18:02:38.156Z,21.17
2019-04-21T18:05:13.349Z,21.07
2019-04-21T18:07:34.907Z,21.00
2019-04-21T18:10:15.925Z,20.93
2019-04-21T18:12:36.412Z,20.85
2019-04-21T18:15:01.421Z,20.75
2019-04-21T18:17:22.663Z,20.68
2019-04-21T18:19:54.904Z,20.60
2019-04-21T18:22:32.132Z,20.53
2019-04-21T18:25:06.760Z,20.43
2019-04-21T18:27:34.359Z,20.34
2019-04-21T18:30:24.292Z,20.23
2019-04-21T18:32:56.463Z,20.15
2019-04-21T18:35:29.235Z,20.07
2019-04-21T18:38:08.140Z,19.99
2019-04-21T18:40:36.481Z,19.88
2019-04-21T18:43:43.761Z,19.79
2019-04-21T18:46:07.061Z,19.81
2019-04-21T18:48:22.788Z,19.81
2019-04-21T18:50:57.334Z,19.85
2019-04-21T18:53:48.098Z,19.91
2019-04-21T18:56:11.149Z,19.93
2019-04-21T18:58:38.303Z,19.93
2019-04-21T19:01:17.844Z,19.91
2019-04-21T19:03:43.523Z,19.88
2019-04-21T19:06:16.838Z,19.86
2019-04-21T19:09:08.679Z,19.82
2019-04-21T19:11:31.185Z,19.79
2019-04-21T19:14:20.950Z,19.76
2019-04-21T19:16:41.588Z,19.72
2019-04-21T19:19:34.050Z,19.68
2019-04-21T19:21:42.305Z,19.64
2019-04-21T19:26:52.353Z,19.54
2019-04-21T19:29:24.370Z,19.50
2019-04-21T19:31:49.487Z,19.44
2019-04-21T19:34:11.358Z,19.40
2019-04-21T19:36:34.461Z,19.34
2019-04-21T19:39:11.593Z,19.29
2019-04-21T19:41:50.745Z,19.20
2019-04-21T19:44:29.408Z,19.13
2019-04-21T19:46:58.372Z,19.05
2019-04-21T19:49:33.516Z,18.98
2019-04-21T19:51:52.215Z,18.92
2019-04-21T19:54:24.290Z,18.84
2019-04-21T19:56:46.963Z,18.77
2019-04-21T19:59:19.594Z,18.69
2019-04-21T20:01:49.986Z,18.60
2019-04-21T20:04:20.035Z,18.52
2019-04-21T20:07:01.140Z,18.46
2019-04-21T20:09:37.044Z,18.37
2019-04-21T20:12:08.227Z,18.31
2019-04-21T20:14:59.123Z,18.24
2019-04-21T20:17:08.903Z,18.17
2019-04-21T20:19:26.596Z,18.11
2019-04-21T20:21:56.974Z,18.04
2019-04-21T20:24:29.889Z,17.97
2019-04-21T20:27:05.265Z,17.91
2019-04-21T20:29:54.175Z,17.84
2019-04-21T20:32:27.506Z,17.79
2019-04-21T20:34:56.347Z,17.72
2019-04-21T20:37:20.708Z,17.64
2019-04-21T20:39:42.843Z,17.55
2019-04-21T20:42:20.981Z,17.44
2019-04-21T20:45:13.082Z,17.35
2019-04-21T20:47:20.059Z,17.29
2019-04-21T20:49:50.489Z,17.23
2019-04-21T20:52:30.648Z,17.16
2019-04-21T20:54:55.158Z,17.11
2019-04-21T20:57:25.906Z,17.07
2019-04-21T21:00:03.079Z,16.98
2019-04-21T21:02:39.045Z,16.91
2019-04-21T21:04:57.178Z,16.81
2019-04-21T21:10:10.927Z,16.61
2019-04-21T21:12:42.979Z,16.52
2019-04-21T21:15:00.148Z,16.43
2019-04-21T21:17:47.953Z,16.33
2019-04-21T21:20:15.612Z,16.24
2019-04-21T21:22:37.692Z,16.13
2019-04-21T21:25:23.518Z,16.02
2019-04-21T21:27:41.590Z,15.90
2019-04-21T21:30:14.579Z,15.81
2019-04-21T21:32:44.223Z,15.72
2019-04-21T21:35:13.749Z,15.65
2019-04-21T21:37:49.541Z,15.60
2019-04-21T21:40:22.311Z,15.52
2019-04-21T21:42:40.678Z,15.47
2019-04-21T21:45:12.557Z,15.41
2019-04-21T21:47:53.334Z,15.37
2019-04-21T21:50:20.755Z,15.35
2019-04-21T21:52:52.451Z,15.31
2019-04-21T21:55:13.839Z,15.26
2019-04-21T21:57:49.897Z,15.22
2019-04-21T22:00:17.550Z,15.19
2019-04-21T22:02:52.793Z,15.14
2019-04-21T22:05:24.324Z,15.10
2019-04-21T22:07:52.302Z,15.04
2019-04-21T22:10:23.101Z,15.03
2019-04-21T22:12:59.758Z,15.02
2019-04-21T22:15:26.783Z,15.03
2019-04-21T22:18:16.751Z,15.03
2019-04-21T22:20:44.518Z,15.01
2019-04-21T22:23:06.406Z,14.95
2019-04-21T22:25:33.346Z,14.89
2019-04-21T22:27:59.913Z,14.83
2019-04-21T22:30:38.435Z,14.80
2019-04-21T22:33:06.240Z,14.73
2019-04-21T22:35:40.374Z,14.64
2019-04-21T22:38:19.625Z,14.57
2019-04-21T22:40:46.537Z,14.52
2019-04-21T22:43:18.493Z,14.45
2019-04-21T22:45:35.757Z,14.38
2019-04-21T22:48:12.433Z,14.32
2019-04-21T22:50:40.567Z,14.26
2019-04-21T22:53:11.919Z,14.23
2019-04-21T22:55:41.021Z,14.18
2019-04-21T22:58:11.454Z,14.13
2019-04-21T23:00:46.064Z,14.08
2019-04-21T23:03:19.513Z,14.06
2019-04-21T23:05:48.176Z,14.01
2019-04-21T23:08:17.146Z,13.98
2019-04-21T23:10:52.582Z,13.94
2019-04-21T23:13:23.166Z,13.89
2019-04-21T23:15:55.379Z,13.84
2019-04-21T23:18:37.459Z,13.81
2019-04-21T23:21:08.836Z,13.77
2019-04-21T23:23:44.148Z,13.72
2019-04-21T23:26:15.527Z,13.66
2019-04-21T23:28:49.078Z,13.62
2019-04-21T23:31:21.875Z,13.62
2019-04-21T23:33:28.983Z,13.66
2019-04-21T23:36:07.364Z,13.67
2019-04-21T23:38:38.782Z,13.68
2019-04-21T23:41:03.884Z,13.70
2019-04-21T23:43:33.470Z,13.73
2019-04-21T23:46:13.155Z,13.76
2019-04-21T23:48:48.817Z,13.80
2019-04-21T23:51:15.955Z,13.81
2019-04-21T23:53:37.429Z,13.80
2019-04-21T23:56:07.559Z,13.80
2019-04-21T23:58:39.918Z,13.76
